sensor_id;sensor_type;location;lat;lon;timestamp;pressure;altitude;pressure_sealevel;temperature;humidity
81509;BME280;70930;52.412;13.554;2023-10-09T00:02:27;101856.75;;;10.91;74.82
81509;BME280;70930;52.412;13.554;2023-10-09T00:05:14;101855.56;;;11.03;73.82
81509;BME280;70930;52.412;13.554;2023-10-09T00:08:15;101842.63;;;10.90;74.24
81509;BME280;70930;52.412;13.554;2023-10-09T00:11:07;101832.84;;;10.73;74.66
81509;BME280;70930;52.412;13.554;2023-10-09T00:13:58;101822.72;;;10.59;74.99
81509;BME280;70930;52.412;13.554;2023-10-09T00:16:45;101821.13;;;10.66;74.81
81509;BME280;70930;52.412;13.554;2023-10-09T00:19:34;101815.63;;;10.49;76.91
81509;BME280;70930;52.412;13.554;2023-10-09T00:22:19;101811.63;;;10.45;77.41
81509;BME280;70930;52.412;13.554;2023-10-09T00:25:12;101813.53;;;10.71;76.17
81509;BME280;70930;52.412;13.554;2023-10-09T00:27:57;101798.06;;;10.66;76.12
81509;BME280;70930;52.412;13.554;2023-10-09T00:30:44;101791.75;;;10.67;76.41
81509;BME280;70930;52.412;13.554;2023-10-09T00:33:30;101794.78;;;10.72;75.84
81509;BME280;70930;52.412;13.554;2023-10-09T00:36:15;101776.19;;;10.54;77.06
81509;BME280;70930;52.412;13.554;2023-10-09T00:39:04;101772.09;;;10.78;76.34
81509;BME280;70930;52.412;13.554;2023-10-09T00:42:03;101776.31;;;10.53;78.55
81509;BME280;70930;52.412;13.554;2023-10-09T00:44:51;101775.91;;;10.57;76.91
81509;BME280;70930;52.412;13.554;2023-10-09T00:47:37;101768.50;;;10.51;78.12
81509;BME280;70930;52.412;13.554;2023-10-09T00:50:26;101758.25;;;10.56;78.63
81509;BME280;70930;52.412;13.554;2023-10-09T00:53:11;101764.03;;;10.52;79.10
81509;BME280;70930;52.412;13.554;2023-10-09T00:56:03;101754.31;;;10.61;78.17
81509;BME280;70930;52.412;13.554;2023-10-09T00:59:15;101751.03;;;10.49;77.71
81509;BME280;70930;52.412;13.554;2023-10-09T01:02:01;101750.41;;;10.37;78.97
81509;BME280;70930;52.412;13.554;2023-10-09T01:04:50;101732.44;;;10.03;81.23
81509;BME280;70930;52.412;13.554;2023-10-09T01:07:37;101731.50;;;10.22;80.65
81509;BME280;70930;52.412;13.554;2023-10-09T01:10:25;101726.97;;;10.05;80.61
81509;BME280;70930;52.412;13.554;2023-10-09T01:13:18;101730.53;;;10.14;80.67
81509;BME280;70930;52.412;13.554;2023-10-09T01:16:05;101718.88;;;9.79;82.51
81509;BME280;70930;52.412;13.554;2023-10-09T01:18:54;101714.47;;;9.50;84.46
81509;BME280;70930;52.412;13.554;2023-10-09T01:21:42;101706.06;;;9.65;83.75
81509;BME280;70930;52.412;13.554;2023-10-09T01:24:27;101705.50;;;9.71;83.78
81509;BME280;70930;52.412;13.554;2023-10-09T01:27:16;101698.50;;;9.70;83.02
81509;BME280;70930;52.412;13.554;2023-10-09T01:30:02;101686.13;;;9.88;82.29
81509;BME280;70930;52.412;13.554;2023-10-09T01:32:48;101691.78;;;10.03;82.33
81509;BME280;70930;52.412;13.554;2023-10-09T01:35:33;101680.00;;;9.60;84.77
81509;BME280;70930;52.412;13.554;2023-10-09T01:38:19;101654.28;;;9.33;85.35
81509;BME280;70930;52.412;13.554;2023-10-09T01:41:15;101646.63;;;9.57;84.29
81509;BME280;70930;52.412;13.554;2023-10-09T01:44:05;101642.97;;;9.68;83.77
81509;BME280;70930;52.412;13.554;2023-10-09T01:46:55;101627.53;;;9.54;85.32
81509;BME280;70930;52.412;13.554;2023-10-09T01:49:42;101615.56;;;9.50;85.08
81509;BME280;70930;52.412;13.554;2023-10-09T01:52:28;101603.84;;;9.43;85.40
81509;BME280;70930;52.412;13.554;2023-10-09T01:55:15;101602.44;;;9.48;85.19
81509;BME280;70930;52.412;13.554;2023-10-09T01:58:13;101580.63;;;9.27;86.55
81509;BME280;70930;52.412;13.554;2023-10-09T02:01:09;101583.06;;;9.48;85.24
81509;BME280;70930;52.412;13.554;2023-10-09T02:03:55;101572.88;;;9.71;84.62
81509;BME280;70930;52.412;13.554;2023-10-09T02:06:47;101585.44;;;9.69;84.15
81509;BME280;70930;52.412;13.554;2023-10-09T02:09:37;101574.50;;;9.54;85.77
81509;BME280;70930;52.412;13.554;2023-10-09T02:12:32;101574.66;;;9.25;86.32
81509;BME280;70930;52.412;13.554;2023-10-09T02:15:19;101573.47;;;9.37;85.32
81509;BME280;70930;52.412;13.554;2023-10-09T02:18:24;101559.22;;;9.48;86.24
81509;BME280;70930;52.412;13.554;2023-10-09T02:21:25;101557.63;;;9.55;85.01
81509;BME280;70930;52.412;13.554;2023-10-09T02:24:19;101562.94;;;9.55;85.25
81509;BME280;70930;52.412;13.554;2023-10-09T02:27:33;101580.53;;;9.74;84.21
81509;BME280;70930;52.412;13.554;2023-10-09T02:30:26;101585.91;;;9.82;84.20
81509;BME280;70930;52.412;13.554;2023-10-09T02:33:16;101583.19;;;9.74;84.50
81509;BME280;70930;52.412;13.554;2023-10-09T02:36:16;101567.44;;;9.72;85.40
81509;BME280;70930;52.412;13.554;2023-10-09T02:39:01;101561.28;;;9.90;84.51
81509;BME280;70930;52.412;13.554;2023-10-09T02:41:51;101557.06;;;9.97;83.87
81509;BME280;70930;52.412;13.554;2023-10-09T02:44:39;101565.38;;;10.02;83.91
81509;BME280;70930;52.412;13.554;2023-10-09T02:47:31;101582.09;;;9.94;83.42
81509;BME280;70930;52.412;13.554;2023-10-09T02:50:22;101574.56;;;9.90;84.07
81509;BME280;70930;52.412;13.554;2023-10-09T02:53:08;101567.88;;;9.86;84.89
81509;BME280;70930;52.412;13.554;2023-10-09T02:55:55;101556.53;;;9.75;86.04
81509;BME280;70930;52.412;13.554;2023-10-09T02:59:03;101538.47;;;9.61;86.57
81509;BME280;70930;52.412;13.554;2023-10-09T03:01:52;101532.31;;;9.61;87.30
81509;BME280;70930;52.412;13.554;2023-10-09T03:04:40;101521.91;;;9.95;85.55
81509;BME280;70930;52.412;13.554;2023-10-09T03:07:26;101515.75;;;9.94;84.91
81509;BME280;70930;52.412;13.554;2023-10-09T03:10:12;101506.94;;;9.94;85.60
81509;BME280;70930;52.412;13.554;2023-10-09T03:12:57;101504.91;;;9.88;85.70
81509;BME280;70930;52.412;13.554;2023-10-09T03:15:48;101496.13;;;9.69;86.99
81509;BME280;70930;52.412;13.554;2023-10-09T03:18:34;101498.91;;;9.86;86.88
81509;BME280;70930;52.412;13.554;2023-10-09T03:21:19;101481.72;;;9.72;87.69
81509;BME280;70930;52.412;13.554;2023-10-09T03:24:05;101469.81;;;9.76;86.57
81509;BME280;70930;52.412;13.554;2023-10-09T03:26:52;101472.59;;;9.21;88.14
81509;BME280;70930;52.412;13.554;2023-10-09T03:29:40;101463.16;;;9.36;87.72
81509;BME280;70930;52.412;13.554;2023-10-09T03:32:34;101458.34;;;9.22;89.27
81509;BME280;70930;52.412;13.554;2023-10-09T03:35:20;101458.59;;;9.28;89.60
81509;BME280;70930;52.412;13.554;2023-10-09T03:38:19;101449.19;;;9.34;88.73
81509;BME280;70930;52.412;13.554;2023-10-09T03:41:05;101442.97;;;9.25;90.70
81509;BME280;70930;52.412;13.554;2023-10-09T03:43:51;101438.13;;;9.21;90.44
81509;BME280;70930;52.412;13.554;2023-10-09T03:46:36;101437.75;;;9.33;89.91
81509;BME280;70930;52.412;13.554;2023-10-09T03:49:22;101427.59;;;9.47;88.90
81509;BME280;70930;52.412;13.554;2023-10-09T03:52:09;101421.03;;;9.69;87.16
81509;BME280;70930;52.412;13.554;2023-10-09T03:54:54;101401.66;;;9.32;88.24
81509;BME280;70930;52.412;13.554;2023-10-09T03:57:40;101389.69;;;9.28;89.59
81509;BME280;70930;52.412;13.554;2023-10-09T04:00:28;101380.28;;;9.34;89.88
81509;BME280;70930;52.412;13.554;2023-10-09T04:03:14;101375.16;;;9.32;88.91
81509;BME280;70930;52.412;13.554;2023-10-09T04:06:00;101370.44;;;9.08;90.07
81509;BME280;70930;52.412;13.554;2023-10-09T04:08:45;101378.31;;;9.00;90.14
81509;BME280;70930;52.412;13.554;2023-10-09T04:11:36;101373.47;;;9.31;89.42
81509;BME280;70930;52.412;13.554;2023-10-09T04:14:21;101393.00;;;9.30;88.43
81509;BME280;70930;52.412;13.554;2023-10-09T04:17:11;101397.34;;;9.31;88.30
81509;BME280;70930;52.412;13.554;2023-10-09T04:20:15;101408.09;;;9.48;88.01
81509;BME280;70930;52.412;13.554;2023-10-09T04:23:03;101403.47;;;9.50;88.23
81509;BME280;70930;52.412;13.554;2023-10-09T04:25:51;101408.03;;;9.40;88.47
81509;BME280;70930;52.412;13.554;2023-10-09T04:28:37;101416.13;;;9.56;89.17
81509;BME280;70930;52.412;13.554;2023-10-09T04:31:23;101411.13;;;9.71;88.80
81509;BME280;70930;52.412;13.554;2023-10-09T04:34:23;101406.66;;;9.36;89.39
81509;BME280;70930;52.412;13.554;2023-10-09T04:37:09;101398.50;;;9.19;89.74
81509;BME280;70930;52.412;13.554;2023-10-09T04:40:00;101404.06;;;9.08;90.64
81509;BME280;70930;52.412;13.554;2023-10-09T04:42:56;101375.56;;;8.92;90.69
81509;BME280;70930;52.412;13.554;2023-10-09T04:45:44;101398.00;;;9.33;89.45
81509;BME280;70930;52.412;13.554;2023-10-09T04:48:48;101401.25;;;9.27;89.20
81509;BME280;70930;52.412;13.554;2023-10-09T04:51:37;101397.56;;;9.20;88.90
81509;BME280;70930;52.412;13.554;2023-10-09T04:54:40;101395.56;;;9.04;89.69
81509;BME280;70930;52.412;13.554;2023-10-09T04:57:47;101398.22;;;9.22;88.76
81509;BME280;70930;52.412;13.554;2023-10-09T05:00:46;101386.03;;;9.29;88.34
81509;BME280;70930;52.412;13.554;2023-10-09T05:03:47;101381.19;;;9.25;89.51
81509;BME280;70930;52.412;13.554;2023-10-09T05:06:41;101380.28;;;9.34;88.22
81509;BME280;70930;52.412;13.554;2023-10-09T05:09:42;101385.19;;;9.11;90.20
81509;BME280;70930;52.412;13.554;2023-10-09T05:12:40;101365.66;;;8.94;89.22
81509;BME280;70930;52.412;13.554;2023-10-09T05:15:31;101374.53;;;8.75;91.25
81509;BME280;70930;52.412;13.554;2023-10-09T05:18:19;101363.66;;;8.78;90.29
81509;BME280;70930;52.412;13.554;2023-10-09T05:21:12;101375.44;;;8.66;91.64
81509;BME280;70930;52.412;13.554;2023-10-09T05:24:04;101377.00;;;8.59;91.37
81509;BME280;70930;52.412;13.554;2023-10-09T05:26:59;101372.53;;;8.59;90.99
81509;BME280;70930;52.412;13.554;2023-10-09T05:30:03;101366.56;;;8.57;91.84
81509;BME280;70930;52.412;13.554;2023-10-09T05:33:09;101361.06;;;8.69;91.50
81509;BME280;70930;52.412;13.554;2023-10-09T05:36:13;101361.25;;;8.85;90.49
81509;BME280;70930;52.412;13.554;2023-10-09T05:39:10;101364.00;;;8.93;90.00
81509;BME280;70930;52.412;13.554;2023-10-09T05:42:22;101360.25;;;8.86;91.02
81509;BME280;70930;52.412;13.554;2023-10-09T05:45:14;101356.25;;;8.82;91.54
81509;BME280;70930;52.412;13.554;2023-10-09T05:48:03;101349.09;;;8.92;91.08
81509;BME280;70930;52.412;13.554;2023-10-09T05:50:49;101356.78;;;8.85;91.02
81509;BME280;70930;52.412;13.554;2023-10-09T05:53:53;101362.09;;;8.85;91.41
81509;BME280;70930;52.412;13.554;2023-10-09T05:56:57;101364.03;;;8.56;92.23
81509;BME280;70930;52.412;13.554;2023-10-09T06:00:14;101369.81;;;8.97;91.27
81509;BME280;70930;52.412;13.554;2023-10-09T06:03:19;101363.81;;;8.95;91.60
81509;BME280;70930;52.412;13.554;2023-10-09T06:06:04;101359.97;;;9.07;90.50
81509;BME280;70930;52.412;13.554;2023-10-09T06:08:50;101361.56;;;9.00;90.42
81509;BME280;70930;52.412;13.554;2023-10-09T06:11:55;101364.44;;;9.06;91.14
81509;BME280;70930;52.412;13.554;2023-10-09T06:15:01;101353.47;;;9.01;91.03
81509;BME280;70930;52.412;13.554;2023-10-09T06:18:04;101359.97;;;9.07;91.26
81509;BME280;70930;52.412;13.554;2023-10-09T06:21:11;101366.72;;;9.01;91.05
81509;BME280;70930;52.412;13.554;2023-10-09T06:24:15;101364.44;;;9.06;91.10
81509;BME280;70930;52.412;13.554;2023-10-09T06:27:00;101351.97;;;9.17;91.03
81509;BME280;70930;52.412;13.554;2023-10-09T06:29:45;101342.59;;;9.04;91.65
81509;BME280;70930;52.412;13.554;2023-10-09T06:32:34;101347.13;;;9.12;91.17
81509;BME280;70930;52.412;13.554;2023-10-09T06:35:19;101343.78;;;9.46;90.80
81509;BME280;70930;52.412;13.554;2023-10-09T06:38:07;101357.50;;;9.41;90.76
81509;BME280;70930;52.412;13.554;2023-10-09T06:41:07;101345.44;;;9.47;89.61
81509;BME280;70930;52.412;13.554;2023-10-09T06:43:52;101342.72;;;9.39;90.24
81509;BME280;70930;52.412;13.554;2023-10-09T06:46:38;101334.91;;;9.55;90.76
81509;BME280;70930;52.412;13.554;2023-10-09T06:49:29;101328.63;;;9.56;90.68
81509;BME280;70930;52.412;13.554;2023-10-09T06:52:18;101317.84;;;9.31;91.00
81509;BME280;70930;52.412;13.554;2023-10-09T06:55:24;101331.75;;;9.51;89.93
81509;BME280;70930;52.412;13.554;2023-10-09T06:58:22;101327.56;;;9.49;90.14
81509;BME280;70930;52.412;13.554;2023-10-09T07:01:13;101329.22;;;9.50;90.48
81509;BME280;70930;52.412;13.554;2023-10-09T07:04:05;101314.19;;;9.58;90.13
81509;BME280;70930;52.412;13.554;2023-10-09T07:07:06;101317.91;;;9.40;90.50
81509;BME280;70930;52.412;13.554;2023-10-09T07:09:58;101325.44;;;9.52;89.68
81509;BME280;70930;52.412;13.554;2023-10-09T07:13:02;101316.13;;;9.48;90.47
81509;BME280;70930;52.412;13.554;2023-10-09T07:15:49;101321.59;;;9.73;90.51
81509;BME280;70930;52.412;13.554;2023-10-09T07:18:53;101324.66;;;9.86;90.41
81509;BME280;70930;52.412;13.554;2023-10-09T07:21:39;101326.88;;;9.91;88.91
81509;BME280;70930;52.412;13.554;2023-10-09T07:24:37;101330.13;;;10.11;88.35
81509;BME280;70930;52.412;13.554;2023-10-09T07:27:30;101327.91;;;9.72;88.71
81509;BME280;70930;52.412;13.554;2023-10-09T07:30:29;101324.63;;;9.78;88.45
81509;BME280;70930;52.412;13.554;2023-10-09T07:33:14;101327.44;;;9.76;89.22
81509;BME280;70930;52.412;13.554;2023-10-09T07:36:01;101328.97;;;9.79;88.91
81509;BME280;70930;52.412;13.554;2023-10-09T07:38:53;101332.59;;;10.04;89.33
81509;BME280;70930;52.412;13.554;2023-10-09T07:41:43;101334.72;;;10.00;88.41
81509;BME280;70930;52.412;13.554;2023-10-09T07:44:41;101330.13;;;10.11;88.08
81509;BME280;70930;52.412;13.554;2023-10-09T07:47:32;101323.31;;;10.08;86.74
81509;BME280;70930;52.412;13.554;2023-10-09T07:50:38;101320.13;;;10.04;88.96
81509;BME280;70930;52.412;13.554;2023-10-09T07:53:33;101333.13;;;10.16;88.36
81509;BME280;70930;52.412;13.554;2023-10-09T07:56:28;101334.25;;;10.31;85.79
81509;BME280;70930;52.412;13.554;2023-10-09T07:59:23;101330.13;;;10.11;86.39
81509;BME280;70930;52.412;13.554;2023-10-09T08:02:09;101325.09;;;9.99;88.57
81509;BME280;70930;52.412;13.554;2023-10-09T08:05:00;101340.91;;;9.83;87.93
81509;BME280;70930;52.412;13.554;2023-10-09T08:07:50;101358.50;;;9.66;88.32
81509;BME280;70930;52.412;13.554;2023-10-09T08:11:08;101363.97;;;9.82;88.17
81509;BME280;70930;52.412;13.554;2023-10-09T08:14:12;101362.50;;;9.88;88.28
81509;BME280;70930;52.412;13.554;2023-10-09T08:17:17;101365.91;;;9.80;89.03
81509;BME280;70930;52.412;13.554;2023-10-09T08:20:12;101377.22;;;9.82;89.07
81509;BME280;70930;52.412;13.554;2023-10-09T08:22:58;101388.06;;;9.71;87.58
81509;BME280;70930;52.412;13.554;2023-10-09T08:25:43;101385.59;;;9.96;87.43
81509;BME280;70930;52.412;13.554;2023-10-09T08:28:44;101395.91;;;10.25;87.41
81509;BME280;70930;52.412;13.554;2023-10-09T08:31:30;101389.09;;;10.22;86.37
81509;BME280;70930;52.412;13.554;2023-10-09T08:34:30;101389.16;;;10.30;88.06
81509;BME280;70930;52.412;13.554;2023-10-09T08:37:33;101377.13;;;10.52;87.07
81509;BME280;70930;52.412;13.554;2023-10-09T08:40:28;101375.63;;;10.42;87.58
81509;BME280;70930;52.412;13.554;2023-10-09T08:43:17;101375.13;;;10.46;87.89
81509;BME280;70930;52.412;13.554;2023-10-09T08:46:04;101373.84;;;10.50;85.58
81509;BME280;70930;52.412;13.554;2023-10-09T08:48:50;101371.25;;;10.06;87.05
81509;BME280;70930;52.412;13.554;2023-10-09T08:51:36;101373.78;;;10.16;86.68
81509;BME280;70930;52.412;13.554;2023-10-09T08:54:22;101382.44;;;10.18;87.90
81509;BME280;70930;52.412;13.554;2023-10-09T08:57:08;101378.78;;;10.45;88.41
81509;BME280;70930;52.412;13.554;2023-10-09T08:59:55;101368.09;;;10.37;86.36
81509;BME280;70930;52.412;13.554;2023-10-09T09:02:42;101359.41;;;10.01;87.80
81509;BME280;70930;52.412;13.554;2023-10-09T09:05:28;101358.66;;;9.82;88.25
81509;BME280;70930;52.412;13.554;2023-10-09T09:08:21;101362.97;;;9.83;88.25
81509;BME280;70930;52.412;13.554;2023-10-09T09:11:16;101358.13;;;9.79;87.69
81509;BME280;70930;52.412;13.554;2023-10-09T09:14:03;101351.53;;;9.83;88.14
81509;BME280;70930;52.412;13.554;2023-10-09T09:16:57;101354.88;;;9.93;88.03
81509;BME280;70930;52.412;13.554;2023-10-09T09:19:43;101360.47;;;10.08;87.53
81509;BME280;70930;52.412;13.554;2023-10-09T09:22:54;101364.19;;;9.97;87.68
81509;BME280;70930;52.412;13.554;2023-10-09T09:25:46;101354.88;;;9.93;88.51
81509;BME280;70930;52.412;13.554;2023-10-09T09:28:33;101345.38;;;10.08;89.22
81509;BME280;70930;52.412;13.554;2023-10-09T09:31:25;101334.44;;;10.12;87.98
81509;BME280;70930;52.412;13.554;2023-10-09T09:34:10;101348.72;;;10.11;85.54
81509;BME280;70930;52.412;13.554;2023-10-09T09:37:10;101334.31;;;10.21;86.91
81509;BME280;70930;52.412;13.554;2023-10-09T09:40:02;101334.81;;;10.43;86.86
81509;BME280;70930;52.412;13.554;2023-10-09T09:43:01;101332.34;;;10.23;85.27
81509;BME280;70930;52.412;13.554;2023-10-09T09:45:55;101340.03;;;10.00;87.53
81509;BME280;70930;52.412;13.554;2023-10-09T09:48:42;101344.75;;;10.15;86.98
81509;BME280;70930;52.412;13.554;2023-10-09T09:51:32;101350.38;;;10.12;87.01
81509;BME280;70930;52.412;13.554;2023-10-09T09:54:18;101354.41;;;10.24;87.56
81509;BME280;70930;52.412;13.554;2023-10-09T09:57:07;101364.59;;;10.28;86.90
81509;BME280;70930;52.412;13.554;2023-10-09T09:59:57;101371.47;;;10.21;86.22
81509;BME280;70930;52.412;13.554;2023-10-09T10:02:44;101372.81;;;9.91;87.02
81509;BME280;70930;52.412;13.554;2023-10-09T10:05:31;101372.56;;;10.02;86.15
81509;BME280;70930;52.412;13.554;2023-10-09T10:08:19;101364.78;;;10.35;86.25
81509;BME280;70930;52.412;13.554;2023-10-09T10:11:05;101361.00;;;10.38;86.39
81509;BME280;70930;52.412;13.554;2023-10-09T10:17:06;101366.34;;;10.46;83.93
81509;BME280;70930;52.412;13.554;2023-10-09T10:20:07;101371.44;;;10.13;85.48
81509;BME280;70930;52.412;13.554;2023-10-09T10:23:19;101357.63;;;10.27;85.95
81509;BME280;70930;52.412;13.554;2023-10-09T10:29:17;101364.28;;;10.31;85.66
81509;BME280;70930;52.412;13.554;2023-10-09T10:32:09;101348.72;;;10.11;86.13
81509;BME280;70930;52.412;13.554;2023-10-09T10:34:56;101350.91;;;10.15;86.88
81509;BME280;70930;52.412;13.554;2023-10-09T10:37:41;101346.84;;;10.29;86.26
81509;BME280;70930;52.412;13.554;2023-10-09T10:40:35;101337.53;;;10.25;85.81
81509;BME280;70930;52.412;13.554;2023-10-09T10:43:24;101335.63;;;10.17;86.80
81509;BME280;70930;52.412;13.554;2023-10-09T10:46:28;101341.28;;;10.14;86.62
81509;BME280;70930;52.412;13.554;2023-10-09T10:49:20;101343.72;;;10.07;88.51
81509;BME280;70930;52.412;13.554;2023-10-09T10:52:20;101343.59;;;10.17;86.90
81509;BME280;70930;52.412;13.554;2023-10-09T10:55:12;101343.38;;;10.37;86.84
81509;BME280;70930;52.412;13.554;2023-10-09T10:58:33;101331.94;;;10.36;85.25
81509;BME280;70930;52.412;13.554;2023-10-09T11:01:35;101340.44;;;10.48;88.45
81509;BME280;70930;52.412;13.554;2023-10-09T11:04:46;101335.84;;;10.58;85.75
81509;BME280;70930;52.412;13.554;2023-10-09T11:07:38;101327.22;;;10.22;86.38
81509;BME280;70930;52.412;13.554;2023-10-09T11:10:24;101333.81;;;10.52;85.52
81509;BME280;70930;52.412;13.554;2023-10-09T11:13:21;101339.41;;;10.41;85.01
81509;BME280;70930;52.412;13.554;2023-10-09T11:16:16;101327.72;;;10.60;86.28
81509;BME280;70930;52.412;13.554;2023-10-09T11:19:19;101328.16;;;10.97;85.59
81509;BME280;70930;52.412;13.554;2023-10-09T11:22:16;101327.34;;;11.21;84.25
81509;BME280;70930;52.412;13.554;2023-10-09T11:25:14;101331.34;;;11.34;83.21
81509;BME280;70930;52.412;13.554;2023-10-09T11:28:03;101328.34;;;11.28;82.57
81509;BME280;70930;52.412;13.554;2023-10-09T11:31:09;101320.03;;;11.31;82.85
81509;BME280;70930;52.412;13.554;2023-10-09T11:34:01;101323.38;;;11.42;82.65
81509;BME280;70930;52.412;13.554;2023-10-09T11:36:47;101318.38;;;11.55;82.86
81509;BME280;70930;52.412;13.554;2023-10-09T11:39:41;101305.72;;;11.65;79.98
81509;BME280;70930;52.412;13.554;2023-10-09T11:42:38;101305.91;;;11.47;82.89
81509;BME280;70930;52.412;13.554;2023-10-09T11:45:33;101301.44;;;11.48;81.71
81509;BME280;70930;52.412;13.554;2023-10-09T11:48:23;101305.59;;;11.26;81.48
81509;BME280;70930;52.412;13.554;2023-10-09T11:51:31;101309.41;;;11.40;81.59
81509;BME280;70930;52.412;13.554;2023-10-09T11:54:32;101304.91;;;11.16;82.09
81509;BME280;70930;52.412;13.554;2023-10-09T11:57:18;101307.22;;;11.19;84.25
81509;BME280;70930;52.412;13.554;2023-10-09T12:00:04;101310.50;;;10.88;83.53
81509;BME280;70930;52.412;13.554;2023-10-09T12:03:08;101302.41;;;10.98;84.92
81509;BME280;70930;52.412;13.554;2023-10-09T12:05:58;101292.91;;;10.87;84.46
81509;BME280;70930;52.412;13.554;2023-10-09T12:08:49;101292.72;;;10.72;84.14
81509;BME280;70930;52.412;13.554;2023-10-09T12:11:35;101285.25;;;10.68;84.74
81509;BME280;70930;52.412;13.554;2023-10-09T12:14:20;101288.38;;;10.63;84.70
81509;BME280;70930;52.412;13.554;2023-10-09T12:17:08;101292.69;;;10.56;84.21
81509;BME280;70930;52.412;13.554;2023-10-09T12:19:54;101286.72;;;10.62;84.35
81509;BME280;70930;52.412;13.554;2023-10-09T12:22:41;101283.41;;;10.68;85.46
81509;BME280;70930;52.412;13.554;2023-10-09T12:25:26;101287.63;;;11.12;83.72
81509;BME280;70930;52.412;13.554;2023-10-09T12:28:16;101299.56;;;10.91;84.36
81509;BME280;70930;52.412;13.554;2023-10-09T12:31:05;101296.59;;;11.19;82.88
81509;BME280;70930;52.412;13.554;2023-10-09T12:33:50;101302.59;;;11.29;81.95
81509;BME280;70930;52.412;13.554;2023-10-09T12:36:36;101302.41;;;11.30;82.01
81509;BME280;70930;52.412;13.554;2023-10-09T12:39:22;101298.59;;;11.49;82.12
81509;BME280;70930;52.412;13.554;2023-10-09T12:42:07;101293.13;;;11.26;82.99
81509;BME280;70930;52.412;13.554;2023-10-09T12:44:53;101291.78;;;11.39;81.99
81509;BME280;70930;52.412;13.554;2023-10-09T12:47:42;101291.28;;;11.19;83.40
81509;BME280;70930;52.412;13.554;2023-10-09T12:50:33;101292.97;;;11.28;83.39
81509;BME280;70930;52.412;13.554;2023-10-09T12:53:19;101288.63;;;11.02;82.35
81509;BME280;70930;52.412;13.554;2023-10-09T12:56:04;101285.25;;;10.76;83.60
81509;BME280;70930;52.412;13.554;2023-10-09T12:58:49;101278.00;;;11.02;84.15
81509;BME280;70930;52.412;13.554;2023-10-09T13:01:38;101279.00;;;11.18;84.51
81509;BME280;70930;52.412;13.554;2023-10-09T13:04:29;101285.13;;;11.43;82.03
81509;BME280;70930;52.412;13.554;2023-10-09T13:07:16;101283.97;;;11.37;82.56
81509;BME280;70930;52.412;13.554;2023-10-09T13:10:07;101278.16;;;11.25;81.99
81509;BME280;70930;52.412;13.554;2023-10-09T13:12:58;101276.34;;;11.26;81.62
81509;BME280;70930;52.412;13.554;2023-10-09T13:15:44;101277.66;;;11.14;82.43
81509;BME280;70930;52.412;13.554;2023-10-09T13:18:29;101274.69;;;11.09;82.26
81509;BME280;70930;52.412;13.554;2023-10-09T13:21:35;101267.03;;;11.14;82.83
81509;BME280;70930;52.412;13.554;2023-10-09T13:24:22;101270.19;;;11.17;82.44
81509;BME280;70930;52.412;13.554;2023-10-09T13:27:14;101286.97;;;11.34;82.38
81509;BME280;70930;52.412;13.554;2023-10-09T13:30:07;101279.31;;;11.39;80.77
81509;BME280;70930;52.412;13.554;2023-10-09T13:32:54;101284.13;;;10.87;83.48
81509;BME280;70930;52.412;13.554;2023-10-09T13:35:40;101289.25;;;10.96;82.92
81509;BME280;70930;52.412;13.554;2023-10-09T13:38:33;101288.63;;;11.27;80.85
81509;BME280;70930;52.412;13.554;2023-10-09T13:41:18;101293.78;;;11.45;81.97
81509;BME280;70930;52.412;13.554;2023-10-09T13:44:04;101302.56;;;11.62;81.04
81509;BME280;70930;52.412;13.554;2023-10-09T13:46:49;101299.91;;;11.53;80.15
81509;BME280;70930;52.412;13.554;2023-10-09T13:49:35;101296.75;;;11.50;81.49
81509;BME280;70930;52.412;13.554;2023-10-09T13:52:25;101293.59;;;11.54;80.49
81509;BME280;70930;52.412;13.554;2023-10-09T13:55:12;101295.09;;;11.57;80.49
81509;BME280;70930;52.412;13.554;2023-10-09T13:58:00;101293.28;;;11.41;80.87
81509;BME280;70930;52.412;13.554;2023-10-09T14:00:46;101291.13;;;11.45;81.02
81509;BME280;70930;52.412;13.554;2023-10-09T14:03:35;101284.50;;;11.33;81.24
81509;BME280;70930;52.412;13.554;2023-10-09T14:06:24;101285.47;;;11.48;81.90
81509;BME280;70930;52.412;13.554;2023-10-09T14:09:18;101279.63;;;11.61;80.98
81509;BME280;70930;52.412;13.554;2023-10-09T14:12:13;101287.59;;;11.69;80.82
81509;BME280;70930;52.412;13.554;2023-10-09T14:15:00;101285.94;;;11.68;80.33
81509;BME280;70930;52.412;13.554;2023-10-09T14:17:49;101282.28;;;11.69;79.96
81509;BME280;70930;52.412;13.554;2023-10-09T14:20:40;101282.78;;;11.64;79.42
81509;BME280;70930;52.412;13.554;2023-10-09T14:23:26;101276.31;;;11.83;80.31
81509;BME280;70930;52.412;13.554;2023-10-09T14:26:17;101280.66;;;11.51;80.36
81509;BME280;70930;52.412;13.554;2023-10-09T14:29:03;101276.63;;;11.72;80.63
81509;BME280;70930;52.412;13.554;2023-10-09T14:31:52;101284.09;;;11.76;80.58
81509;BME280;70930;52.412;13.554;2023-10-09T14:34:45;101281.25;;;11.86;79.18
81509;BME280;70930;52.412;13.554;2023-10-09T14:37:39;101278.59;;;11.86;79.85
81509;BME280;70930;52.412;13.554;2023-10-09T14:40:24;101275.28;;;11.92;79.56
81509;BME280;70930;52.412;13.554;2023-10-09T14:43:17;101269.25;;;11.98;78.87
81509;BME280;70930;52.412;13.554;2023-10-09T14:46:05;101263.63;;;11.93;78.89
81509;BME280;70930;52.412;13.554;2023-10-09T14:48:56;101262.22;;;12.14;77.69
81509;BME280;70930;52.412;13.554;2023-10-09T14:51:43;101269.75;;;11.94;78.65
81509;BME280;70930;52.412;13.554;2023-10-09T14:54:29;101254.81;;;12.32;78.13
81509;BME280;70930;52.412;13.554;2023-10-09T14:57:15;101260.28;;;12.39;77.99
81509;BME280;70930;52.412;13.554;2023-10-09T15:00:01;101259.66;;;12.28;77.95